sensor_id;sensor_type;location;lat;lon;timestamp;pressure;altitude;pressure_sealevel;temperature;humidity
55010;BME280;40903;51.638;7.528;2023-07-31T00:02:24;100484.19;;;16.59;100.00
55010;BME280;40903;51.638;7.528;2023-07-31T00:04:49;100485.00;;;16.60;100.00
55010;BME280;40903;51.638;7.528;2023-07-31T00:07:17;100486.47;;;16.57;100.00
55010;BME280;40903;51.638;7.528;2023-07-31T00:09:43;100480.50;;;16.55;100.00
55010;BME280;40903;51.638;7.528;2023-07-31T00:12:08;100475.66;;;16.52;100.00
55010;BME280;40903;51.638;7.528;2023-07-31T00:14:33;100486.22;;;16.50;100.00
55010;BME280;40903;51.638;7.528;2023-07-31T00:16:59;100470.84;;;16.49;100.00
55010;BME280;40903;51.638;7.528;2023-07-31T00:19:24;100471.97;;;16.48;100.00
55010;BME280;40903;51.638;7.528;2023-07-31T00:21:50;100473.44;;;16.46;100.00
55010;BME280;40903;51.638;7.528;2023-07-31T00:24:15;100466.66;;;16.43;100.00
55010;BME280;40903;51.638;7.528;2023-07-31T00:26:40;100472.50;;;16.42;100.00
55010;BME280;40903;51.638;7.528;2023-07-31T00:29:06;100464.56;;;16.40;100.00
55010;BME280;40903;51.638;7.528;2023-07-31T00:31:31;100462.28;;;16.42;100.00
55010;BME280;40903;51.638;7.528;2023-07-31T00:33:56;100459.22;;;16.44;100.00
55010;BME280;40903;51.638;7.528;2023-07-31T00:36:22;100455.66;;;16.43;100.00
55010;BME280;40903;51.638;7.528;2023-07-31T00:38:47;100457.25;;;16.44;100.00
55010;BME280;40903;51.638;7.528;2023-07-31T00:41:13;100454.50;;;16.44;100.00
55010;BME280;40903;51.638;7.528;2023-07-31T00:43:38;100452.88;;;16.43;100.00
55010;BME280;40903;51.638;7.528;2023-07-31T00:46:03;100461.16;;;16.43;100.00
55010;BME280;40903;51.638;7.528;2023-07-31T00:48:29;100449.81;;;16.45;100.00
55010;BME280;40903;51.638;7.528;2023-07-31T00:50:55;100449.81;;;16.45;100.00
55010;BME280;40903;51.638;7.528;2023-07-31T00:53:20;100448.53;;;16.42;100.00
55010;BME280;40903;51.638;7.528;2023-07-31T00:55:46;100451.50;;;16.37;100.00
55010;BME280;40903;51.638;7.528;2023-07-31T00:58:11;100455.38;;;16.36;100.00
55010;BME280;40903;51.638;7.528;2023-07-31T01:00:37;100452.13;;;16.34;100.00
55010;BME280;40903;51.638;7.528;2023-07-31T01:03:02;100440.19;;;16.30;100.00
55010;BME280;40903;51.638;7.528;2023-07-31T01:05:36;100436.94;;;16.28;100.00
55010;BME280;40903;51.638;7.528;2023-07-31T01:10:50;100421.56;;;16.27;100.00
55010;BME280;40903;51.638;7.528;2023-07-31T01:13:19;100422.72;;;16.26;100.00
55010;BME280;40903;51.638;7.528;2023-07-31T01:15:44;100418.19;;;16.30;100.00
55010;BME280;40903;51.638;7.528;2023-07-31T01:18:09;100411.84;;;16.30;100.00
55010;BME280;40903;51.638;7.528;2023-07-31T01:20:36;100413.59;;;16.34;100.00
55010;BME280;40903;51.638;7.528;2023-07-31T01:26:23;100415.84;;;16.41;100.00
55010;BME280;40903;51.638;7.528;2023-07-31T01:29:02;100407.25;;;16.42;100.00
55010;BME280;40903;51.638;7.528;2023-07-31T01:31:29;100411.59;;;16.43;100.00
55010;BME280;40903;51.638;7.528;2023-07-31T01:33:58;100415.97;;;16.44;100.00
55010;BME280;40903;51.638;7.528;2023-07-31T01:36:25;100421.16;;;16.46;100.00
55010;BME280;40903;51.638;7.528;2023-07-31T01:38:51;100413.56;;;16.43;100.00
55010;BME280;40903;51.638;7.528;2023-07-31T01:41:17;100417.59;;;16.45;100.00
55010;BME280;40903;51.638;7.528;2023-07-31T01:43:43;100423.22;;;16.49;100.00
55010;BME280;40903;51.638;7.528;2023-07-31T01:46:08;100416.25;;;16.51;100.00
55010;BME280;40903;51.638;7.528;2023-07-31T01:48:33;100414.44;;;16.55;100.00
55010;BME280;40903;51.638;7.528;2023-07-31T01:51:02;100411.22;;;16.53;100.00
55010;BME280;40903;51.638;7.528;2023-07-31T01:53:28;100401.66;;;16.51;100.00
55010;BME280;40903;51.638;7.528;2023-07-31T01:55:53;100410.75;;;16.51;100.00
55010;BME280;40903;51.638;7.528;2023-07-31T01:58:18;100391.47;;;16.51;100.00
55010;BME280;40903;51.638;7.528;2023-07-31T02:00:44;100406.72;;;16.49;100.00
55010;BME280;40903;51.638;7.528;2023-07-31T02:03:09;100408.31;;;16.50;100.00
55010;BME280;40903;51.638;7.528;2023-07-31T02:05:35;100408.00;;;16.51;100.00
55010;BME280;40903;51.638;7.528;2023-07-31T02:08:00;100406.38;;;16.50;100.00
55010;BME280;40903;51.638;7.528;2023-07-31T02:10:26;100402.34;;;16.48;100.00
55010;BME280;40903;51.638;7.528;2023-07-31T02:12:51;100398.81;;;16.47;100.00
55010;BME280;40903;51.638;7.528;2023-07-31T02:15:16;100403.16;;;16.48;100.00
55010;BME280;40903;51.638;7.528;2023-07-31T02:17:42;100403.50;;;16.47;100.00
55010;BME280;40903;51.638;7.528;2023-07-31T02:20:08;100400.41;;;16.48;100.00
55010;BME280;40903;51.638;7.528;2023-07-31T02:22:33;100398.81;;;16.47;100.00
55010;BME280;40903;51.638;7.528;2023-07-31T02:24:58;100406.25;;;16.47;100.00
55010;BME280;40903;51.638;7.528;2023-07-31T02:27:24;100398.44;;;16.49;100.00
55010;BME280;40903;51.638;7.528;2023-07-31T02:29:52;100395.09;;;16.43;100.00
55010;BME280;40903;51.638;7.528;2023-07-31T02:32:17;100394.31;;;16.43;100.00
55010;BME280;40903;51.638;7.528;2023-07-31T02:34:43;100395.78;;;16.40;100.00
55010;BME280;40903;51.638;7.528;2023-07-31T02:37:08;100396.59;;;16.41;100.00
55010;BME280;40903;51.638;7.528;2023-07-31T02:39:33;100387.50;;;16.40;100.00
55010;BME280;40903;51.638;7.528;2023-07-31T02:41:59;100405.16;;;16.39;100.00
55010;BME280;40903;51.638;7.528;2023-07-31T02:44:25;100389.47;;;16.40;100.00
55010;BME280;40903;51.638;7.528;2023-07-31T02:46:51;100391.59;;;16.34;100.00
55010;BME280;40903;51.638;7.528;2023-07-31T02:49:16;100392.56;;;16.38;100.00
55010;BME280;40903;51.638;7.528;2023-07-31T02:51:42;100384.97;;;16.35;100.00
55010;BME280;40903;51.638;7.528;2023-07-31T02:54:07;100389.47;;;16.40;100.00
55010;BME280;40903;51.638;7.528;2023-07-31T02:56:32;100385.91;;;16.39;100.00
55010;BME280;40903;51.638;7.528;2023-07-31T02:58:57;100383.97;;;16.40;100.00
55010;BME280;40903;51.638;7.528;2023-07-31T03:01:23;100383.84;;;16.36;100.00
55010;BME280;40903;51.638;7.528;2023-07-31T03:03:48;100387.97;;;16.42;100.00
55010;BME280;40903;51.638;7.528;2023-07-31T03:06:13;100386.59;;;16.36;100.00
55010;BME280;40903;51.638;7.528;2023-07-31T03:08:39;100372.00;;;16.36;100.00
55010;BME280;40903;51.638;7.528;2023-07-31T03:11:04;100375.09;;;16.34;100.00
55010;BME280;40903;51.638;7.528;2023-07-31T03:13:29;100372.81;;;16.36;100.00
55010;BME280;40903;51.638;7.528;2023-07-31T03:15:55;100380.59;;;16.34;100.00
55010;BME280;40903;51.638;7.528;2023-07-31T03:18:20;100377.38;;;16.32;100.00
55010;BME280;40903;51.638;7.528;2023-07-31T03:20:45;100382.50;;;16.34;100.00
55010;BME280;40903;51.638;7.528;2023-07-31T03:23:11;100382.69;;;16.37;100.00
55010;BME280;40903;51.638;7.528;2023-07-31T03:25:37;100375.41;;;16.33;100.00
55010;BME280;40903;51.638;7.528;2023-07-31T03:28:02;100374.63;;;16.32;100.00
55010;BME280;40903;51.638;7.528;2023-07-31T03:30:27;100378.84;;;16.30;100.00
55010;BME280;40903;51.638;7.528;2023-07-31T03:32:53;100383.66;;;16.33;100.00
55010;BME280;40903;51.638;7.528;2023-07-31T03:35:18;100379.47;;;16.35;100.00
55010;BME280;40903;51.638;7.528;2023-07-31T03:37:43;100381.59;;;16.30;100.00
55010;BME280;40903;51.638;7.528;2023-07-31T03:40:09;100380.66;;;16.26;100.00
55010;BME280;40903;51.638;7.528;2023-07-31T03:42:35;100377.09;;;16.25;100.00
55010;BME280;40903;51.638;7.528;2023-07-31T03:45:00;100374.34;;;16.25;100.00
55010;BME280;40903;51.638;7.528;2023-07-31T03:47:26;100375.47;;;16.24;100.00
55010;BME280;40903;51.638;7.528;2023-07-31T03:49:51;100377.28;;;16.20;100.00
55010;BME280;40903;51.638;7.528;2023-07-31T03:52:16;100369.84;;;16.21;100.00
55010;BME280;40903;51.638;7.528;2023-07-31T03:54:42;100369.38;;;16.19;100.00
55010;BME280;40903;51.638;7.528;2023-07-31T03:57:10;100363.53;;;16.20;100.00
55010;BME280;40903;51.638;7.528;2023-07-31T03:59:35;100364.47;;;16.24;100.00
55010;BME280;40903;51.638;7.528;2023-07-31T04:02:00;100364.94;;;16.26;100.00
55010;BME280;40903;51.638;7.528;2023-07-31T04:04:26;100362.53;;;16.25;100.00
55010;BME280;40903;51.638;7.528;2023-07-31T04:06:51;100365.28;;;16.25;100.00
55010;BME280;40903;51.638;7.528;2023-07-31T04:09:17;100369.28;;;16.27;100.00
55010;BME280;40903;51.638;7.528;2023-07-31T04:11:42;100368.84;;;16.25;100.00
55010;BME280;40903;51.638;7.528;2023-07-31T04:14:08;100365.41;;;16.28;100.00
55010;BME280;40903;51.638;7.528;2023-07-31T04:16:34;100371.41;;;16.30;100.00
55010;BME280;40903;51.638;7.528;2023-07-31T04:18:59;100368.28;;;16.32;100.00
55010;BME280;40903;51.638;7.528;2023-07-31T04:21:25;100373.00;;;16.31;100.00
55010;BME280;40903;51.638;7.528;2023-07-31T04:23:50;100365.41;;;16.28;100.00
55010;BME280;40903;51.638;7.528;2023-07-31T04:26:16;100363.59;;;16.32;100.00
55010;BME280;40903;51.638;7.528;2023-07-31T04:28:41;100364.06;;;16.34;100.00
55010;BME280;40903;51.638;7.528;2023-07-31T04:31:06;100368.09;;;16.37;100.00
55010;BME280;40903;51.638;7.528;2023-07-31T04:33:31;100357.91;;;16.37;100.00
55010;BME280;40903;51.638;7.528;2023-07-31T04:35:57;100367.25;;;16.45;100.00
55010;BME280;40903;51.638;7.528;2023-07-31T04:38:22;100362.19;;;16.47;100.00
55010;BME280;40903;51.638;7.528;2023-07-31T04:40:48;100356.38;;;16.48;100.00
55010;BME280;40903;51.638;7.528;2023-07-31T04:43:13;100356.84;;;16.50;100.00
55010;BME280;40903;51.638;7.528;2023-07-31T04:45:39;100360.88;;;16.53;100.00
55010;BME280;40903;51.638;7.528;2023-07-31T04:48:04;100355.22;;;16.49;100.00
55010;BME280;40903;51.638;7.528;2023-07-31T04:50:30;100359.91;;;16.49;100.00
55010;BME280;40903;51.638;7.528;2023-07-31T04:52:56;100352.13;;;16.51;100.00
55010;BME280;40903;51.638;7.528;2023-07-31T04:55:21;100344.34;;;16.53;100.00
55010;BME280;40903;51.638;7.528;2023-07-31T04:57:47;100355.00;;;16.54;100.00
55010;BME280;40903;51.638;7.528;2023-07-31T05:00:12;100354.31;;;16.57;100.00
55010;BME280;40903;51.638;7.528;2023-07-31T05:02:38;100348.63;;;16.62;100.00
55010;BME280;40903;51.638;7.528;2023-07-31T05:05:03;100348.97;;;16.61;100.00
55010;BME280;40903;51.638;7.528;2023-07-31T05:07:29;100350.56;;;16.62;100.00
55010;BME280;40903;51.638;7.528;2023-07-31T05:09:54;100357.34;;;16.64;100.00
55010;BME280;40903;51.638;7.528;2023-07-31T05:12:19;100353.31;;;16.62;100.00
55010;BME280;40903;51.638;7.528;2023-07-31T05:14:45;100349.41;;;16.63;100.00
55010;BME280;40903;51.638;7.528;2023-07-31T05:17:10;100349.09;;;16.64;100.00
55010;BME280;40903;51.638;7.528;2023-07-31T05:19:35;100351.97;;;16.68;100.00
55010;BME280;40903;51.638;7.528;2023-07-31T05:22:01;100343.38;;;16.69;100.00
55010;BME280;40903;51.638;7.528;2023-07-31T05:24:26;100347.72;;;16.70;100.00
55010;BME280;40903;51.638;7.528;2023-07-31T05:26:51;100344.63;;;16.72;100.00
55010;BME280;40903;51.638;7.528;2023-07-31T05:29:17;100340.75;;;16.73;100.00
55010;BME280;40903;51.638;7.528;2023-07-31T05:31:42;100336.50;;;16.75;100.00
55010;BME280;40903;51.638;7.528;2023-07-31T05:34:08;100332.63;;;16.76;100.00
55010;BME280;40903;51.638;7.528;2023-07-31T05:36:33;100328.81;;;16.81;100.00
55010;BME280;40903;51.638;7.528;2023-07-31T05:38:58;100328.50;;;16.82;100.00
55010;BME280;40903;51.638;7.528;2023-07-31T05:41:24;100325.03;;;16.85;100.00
55010;BME280;40903;51.638;7.528;2023-07-31T05:43:49;100323.69;;;16.91;100.00
55010;BME280;40903;51.638;7.528;2023-07-31T05:46:15;100305.34;;;16.95;100.00
55010;BME280;40903;51.638;7.528;2023-07-31T05:48:40;100305.56;;;17.02;100.00
55010;BME280;40903;51.638;7.528;2023-07-31T05:51:05;100322.53;;;17.04;100.00
55010;BME280;40903;51.638;7.528;2023-07-31T05:53:32;100305.34;;;17.07;100.00
55010;BME280;40903;51.638;7.528;2023-07-31T05:55:57;100303.06;;;17.09;100.00
55010;BME280;40903;51.638;7.528;2023-07-31T05:58:22;100300.75;;;17.11;100.00
55010;BME280;40903;51.638;7.528;2023-07-31T06:00:48;100303.97;;;17.13;100.00
55010;BME280;40903;51.638;7.528;2023-07-31T06:03:13;100307.41;;;17.10;100.00
55010;BME280;40903;51.638;7.528;2023-07-31T06:05:38;100305.44;;;17.11;100.00
55010;BME280;40903;51.638;7.528;2023-07-31T06:08:04;100291.34;;;17.12;100.00
55010;BME280;40903;51.638;7.528;2023-07-31T06:10:29;100296.03;;;17.12;100.00
55010;BME280;40903;51.638;7.528;2023-07-31T06:12:54;100289.88;;;17.15;100.00
55010;BME280;40903;51.638;7.528;2023-07-31T06:15:20;100289.88;;;17.15;100.00
55010;BME280;40903;51.638;7.528;2023-07-31T06:17:45;100279.75;;;17.19;100.00
55010;BME280;40903;51.638;7.528;2023-07-31T06:20:11;100275.84;;;17.20;100.00
55010;BME280;40903;51.638;7.528;2023-07-31T06:22:36;100277.91;;;17.23;100.00
55010;BME280;40903;51.638;7.528;2023-07-31T06:25:02;100279.97;;;17.26;100.00
55010;BME280;40903;51.638;7.528;2023-07-31T06:27:28;100284.00;;;17.28;100.00
55010;BME280;40903;51.638;7.528;2023-07-31T06:29:53;100267.91;;;17.30;100.00
55010;BME280;40903;51.638;7.528;2023-07-31T06:32:19;100276.19;;;17.30;100.00
55010;BME280;40903;51.638;7.528;2023-07-31T06:34:44;100284.13;;;17.32;100.00
55010;BME280;40903;51.638;7.528;2023-07-31T06:37:10;100290.91;;;17.34;100.00
55010;BME280;40903;51.638;7.528;2023-07-31T06:39:35;100280.22;;;17.33;100.00
55010;BME280;40903;51.638;7.528;2023-07-31T06:42:03;100281.16;;;17.37;100.00
55010;BME280;40903;51.638;7.528;2023-07-31T06:44:29;100279.22;;;17.37;100.00
55010;BME280;40903;51.638;7.528;2023-07-31T06:46:54;100288.38;;;17.41;100.00
55010;BME280;40903;51.638;7.528;2023-07-31T06:49:20;100282.06;;;17.41;100.00
55010;BME280;40903;51.638;7.528;2023-07-31T06:51:45;100285.31;;;17.43;100.00
55010;BME280;40903;51.638;7.528;2023-07-31T06:54:10;100288.38;;;17.41;100.00
55010;BME280;40903;51.638;7.528;2023-07-31T06:56:36;100290.00;;;17.42;100.00
55010;BME280;40903;51.638;7.528;2023-07-31T06:59:01;100282.06;;;17.41;100.00
55010;BME280;40903;51.638;7.528;2023-07-31T07:01:27;100275.75;;;17.40;100.00
55010;BME280;40903;51.638;7.528;2023-07-31T07:03:53;100276.53;;;17.41;100.00
55010;BME280;40903;51.638;7.528;2023-07-31T07:06:19;100272.56;;;17.38;100.00
55010;BME280;40903;51.638;7.528;2023-07-31T07:08:44;100276.91;;;17.39;100.00
55010;BME280;40903;51.638;7.528;2023-07-31T07:11:10;100283.22;;;17.40;100.00
55010;BME280;40903;51.638;7.528;2023-07-31T07:13:35;100279.88;;;17.46;100.00
55010;BME280;40903;51.638;7.528;2023-07-31T07:16:01;100279.19;;;17.49;100.00
55010;BME280;40903;51.638;7.528;2023-07-31T07:18:26;100262.75;;;17.53;100.00
55010;BME280;40903;51.638;7.528;2023-07-31T07:20:52;100270.00;;;17.57;100.00
55010;BME280;40903;51.638;7.528;2023-07-31T07:23:19;100263.88;;;17.64;100.00
55010;BME280;40903;51.638;7.528;2023-07-31T07:25:46;100276.31;;;17.58;100.00
55010;BME280;40903;51.638;7.528;2023-07-31T07:28:11;100266.31;;;17.65;100.00
55010;BME280;40903;51.638;7.528;2023-07-31T07:30:37;100261.69;;;17.69;100.00
55010;BME280;40903;51.638;7.528;2023-07-31T07:33:03;100258.81;;;17.66;100.00
55010;BME280;40903;51.638;7.528;2023-07-31T07:35:28;100264.00;;;17.67;100.00
55010;BME280;40903;51.638;7.528;2023-07-31T07:37:56;100261.34;;;17.71;100.00
55010;BME280;40903;51.638;7.528;2023-07-31T07:40:22;100264.91;;;17.71;100.00
55010;BME280;40903;51.638;7.528;2023-07-31T07:42:47;100265.47;;;17.77;100.00
55010;BME280;40903;51.638;7.528;2023-07-31T07:45:13;100258.81;;;17.78;100.00
55010;BME280;40903;51.638;7.528;2023-07-31T07:47:40;100265.09;;;17.78;100.00
55010;BME280;40903;51.638;7.528;2023-07-31T07:50:06;100266.19;;;17.74;100.00
55010;BME280;40903;51.638;7.528;2023-07-31T07:52:32;100265.63;;;17.68;100.00
55010;BME280;40903;51.638;7.528;2023-07-31T07:54:57;100264.69;;;17.64;100.00
55010;BME280;40903;51.638;7.528;2023-07-31T07:57:26;100249.66;;;17.62;100.00
55010;BME280;40903;51.638;7.528;2023-07-31T07:59:51;100252.97;;;17.67;100.00
55010;BME280;40903;51.638;7.528;2023-07-31T08:02:17;100256.88;;;17.66;100.00
55010;BME280;40903;51.638;7.528;2023-07-31T08:04:43;100270.75;;;17.70;100.00
55010;BME280;40903;51.638;7.528;2023-07-31T08:07:11;100263.31;;;17.70;100.00
55010;BME280;40903;51.638;7.528;2023-07-31T08:09:36;100256.53;;;17.68;100.00
55010;BME280;40903;51.638;7.528;2023-07-31T08:12:02;100264.00;;;17.67;100.00
55010;BME280;40903;51.638;7.528;2023-07-31T08:14:29;100258.56;;;17.71;100.00
55010;BME280;40903;51.638;7.528;2023-07-31T08:16:54;100250.78;;;17.73;100.00
55010;BME280;40903;51.638;7.528;2023-07-31T08:19:19;100248.81;;;17.73;100.00
55010;BME280;40903;51.638;7.528;2023-07-31T08:21:45;100248.09;;;17.76;100.00
55010;BME280;40903;51.638;7.528;2023-07-31T08:24:10;100251.09;;;17.83;100.00
55010;BME280;40903;51.638;7.528;2023-07-31T08:26:38;100237.88;;;17.88;100.00
55010;BME280;40903;51.638;7.528;2023-07-31T08:29:06;100242.69;;;17.91;100.00
55010;BME280;40903;51.638;7.528;2023-07-31T08:31:32;100234.84;;;17.93;100.00
55010;BME280;40903;51.638;7.528;2023-07-31T08:33:57;100232.19;;;17.97;100.00
55010;BME280;40903;51.638;7.528;2023-07-31T08:36:22;100224.09;;;18.04;100.00
55010;BME280;40903;51.638;7.528;2023-07-31T08:38:48;100223.41;;;18.07;100.00
55010;BME280;40903;51.638;7.528;2023-07-31T08:41:15;100225.00;;;18.08;100.00
55010;BME280;40903;51.638;7.528;2023-07-31T08:43:43;100219.56;;;17.96;100.00
55010;BME280;40903;51.638;7.528;2023-07-31T08:46:10;100219.31;;;18.01;100.00
55010;BME280;40903;51.638;7.528;2023-07-31T08:48:37;100222.16;;;18.04;100.00
55010;BME280;40903;51.638;7.528;2023-07-31T08:51:03;100212.78;;;17.93;100.00
55010;BME280;40903;51.638;7.528;2023-07-31T08:53:29;100218.59;;;18.04;100.00
55010;BME280;40903;51.638;7.528;2023-07-31T08:55:54;100213.97;;;18.08;100.00
55010;BME280;40903;51.638;7.528;2023-07-31T08:58:22;100228.84;;;18.03;100.00
55010;BME280;40903;51.638;7.528;2023-07-31T09:00:52;100218.69;;;18.07;100.00
55010;BME280;40903;51.638;7.528;2023-07-31T09:03:18;100221.00;;;18.05;100.00
55010;BME280;40903;51.638;7.528;2023-07-31T09:05:45;100216.56;;;18.16;100.00
55010;BME280;40903;51.638;7.528;2023-07-31T09:08:12;100229.19;;;18.02;100.00
55010;BME280;40903;51.638;7.528;2023-07-31T09:10:45;100224.81;;;18.01;100.00
55010;BME280;40903;51.638;7.528;2023-07-31T09:13:14;100222.31;;;17.96;100.00
55010;BME280;40903;51.638;7.528;2023-07-31T09:15:41;100223.91;;;17.97;100.00
55010;BME280;40903;51.638;7.528;2023-07-31T09:18:09;100221.59;;;17.99;100.00
55010;BME280;40903;51.638;7.528;2023-07-31T09:20:35;100220.00;;;17.98;100.00
55010;BME280;40903;51.638;7.528;2023-07-31T09:23:11;100234.97;;;17.97;100.00
55010;BME280;40903;51.638;7.528;2023-07-31T09:25:39;100224.81;;;18.01;100.00
55010;BME280;40903;51.638;7.528;2023-07-31T09:28:09;100213.28;;;18.11;100.00
55010;BME280;40903;51.638;7.528;2023-07-31T09:30:49;100218.59;;;18.04;100.00
55010;BME280;40903;51.638;7.528;2023-07-31T09:33:15;100225.44;;;18.10;100.00
55010;BME280;40903;51.638;7.528;2023-07-31T09:35:41;100214.53;;;18.13;100.00
55010;BME280;40903;51.638;7.528;2023-07-31T09:38:13;100218.59;;;18.04;100.00
55010;BME280;40903;51.638;7.528;2023-07-31T09:40:44;100219.41;;;18.04;100.00
55010;BME280;40903;51.638;7.528;2023-07-31T09:43:12;100211.22;;;18.08;100.00
55010;BME280;40903;51.638;7.528;2023-07-31T09:45:39;100220.31;;;18.08;100.00
55010;BME280;40903;51.638;7.528;2023-07-31T09:48:13;100214.19;;;18.15;100.00
55010;BME280;40903;51.638;7.528;2023-07-31T09:50:42;100214.41;;;18.10;100.00
55010;BME280;40903;51.638;7.528;2023-07-31T09:53:08;100208.50;;;18.23;100.00
55010;BME280;40903;51.638;7.528;2023-07-31T09:55:41;100212.31;;;18.19;100.00
55010;BME280;40903;51.638;7.528;2023-07-31T09:58:11;100197.91;;;18.25;100.00
55010;BME280;40903;51.638;7.528;2023-07-31T10:00:37;100208.25;;;18.28;100.00
55010;BME280;40903;51.638;7.528;2023-07-31T10:03:07;100202.84;;;18.32;100.00
55010;BME280;40903;51.638;7.528;2023-07-31T10:05:40;100207.94;;;18.45;100.00
55010;BME280;40903;51.638;7.528;2023-07-31T10:08:10;100204.13;;;18.22;100.00
55010;BME280;40903;51.638;7.528;2023-07-31T10:10:44;100206.53;;;18.24;100.00
55010;BME280;40903;51.638;7.528;2023-07-31T10:13:11;100198.94;;;18.33;100.00
55010;BME280;40903;51.638;7.528;2023-07-31T10:15:37;100194.81;;;18.27;100.00
55010;BME280;40903;51.638;7.528;2023-07-31T10:18:06;100194.28;;;18.37;100.00
55010;BME280;40903;51.638;7.528;2023-07-31T10:20:32;100199.19;;;18.28;100.00
55010;BME280;40903;51.638;7.528;2023-07-31T10:23:06;100196.56;;;18.19;100.00
55010;BME280;40903;51.638;7.528;2023-07-31T10:25:34;100192.28;;;18.22;100.00
55010;BME280;40903;51.638;7.528;2023-07-31T10:28:00;100196.63;;;18.35;100.00
55010;BME280;40903;51.638;7.528;2023-07-31T10:30:30;100197.81;;;18.22;100.00
55010;BME280;40903;51.638;7.528;2023-07-31T10:32:58;100192.38;;;18.25;100.00
55010;BME280;40903;51.638;7.528;2023-07-31T10:35:23;100191.56;;;18.25;100.00
55010;BME280;40903;51.638;7.528;2023-07-31T10:37:49;100195.16;;;18.25;100.00
55010;BME280;40903;51.638;7.528;2023-07-31T10:40:24;100191.09;;;18.35;100.00
55010;BME280;40903;51.638;7.528;2023-07-31T10:42:52;100186.00;;;18.37;100.00
55010;BME280;40903;51.638;7.528;2023-07-31T10:45:32;100180.16;;;18.38;100.00
55010;BME280;40903;51.638;7.528;2023-07-31T10:50:29;100177.03;;;18.55;100.00
55010;BME280;40903;51.638;7.528;2023-07-31T10:52:55;100182.13;;;18.53;100.00
55010;BME280;40903;51.638;7.528;2023-07-31T10:55:29;100183.81;;;18.58;100.00
55010;BME280;40903;51.638;7.528;2023-07-31T10:57:57;100188.19;;;18.59;100.00
55010;BME280;40903;51.638;7.528;2023-07-31T11:03:15;100187.03;;;18.60;100.00
55010;BME280;40903;51.638;7.528;2023-07-31T11:06:18;100178.56;;;18.68;100.00
55010;BME280;40903;51.638;7.528;2023-07-31T11:08:47;100176.94;;;18.52;100.00
55010;BME280;40903;51.638;7.528;2023-07-31T11:11:17;100179.25;;;18.50;100.00
55010;BME280;40903;51.638;7.528;2023-07-31T11:13:47;100174.63;;;18.54;100.00
55010;BME280;40903;51.638;7.528;2023-07-31T11:16:20;100185.94;;;18.49;100.00
55010;BME280;40903;51.638;7.528;2023-07-31T11:18:47;100181.75;;;18.55;100.00
55010;BME280;40903;51.638;7.528;2023-07-31T11:21:21;100176.13;;;18.67;100.00
55010;BME280;40903;51.638;7.528;2023-07-31T11:23:52;100182.63;;;18.74;100.00
55010;BME280;40903;51.638;7.528;2023-07-31T11:26:19;100184.88;;;18.69;100.00
55010;BME280;40903;51.638;7.528;2023-07-31T11:28:50;100189.41;;;18.46;100.00
55010;BME280;40903;51.638;7.528;2023-07-31T11:31:17;100185.22;;;18.52;100.00
55010;BME280;40903;51.638;7.528;2023-07-31T11:33:43;100180.88;;;18.35;100.00
55010;BME280;40903;51.638;7.528;2023-07-31T11:36:19;100178.88;;;18.36;100.00
55010;BME280;40903;51.638;7.528;2023-07-31T11:38:46;100182.19;;;18.41;100.00
55010;BME280;40903;51.638;7.528;2023-07-31T11:41:14;100169.38;;;18.49;100.00
55010;BME280;40903;51.638;7.528;2023-07-31T11:43:40;100164.28;;;18.51;100.00
55010;BME280;40903;51.638;7.528;2023-07-31T11:46:05;100164.28;;;18.51;100.00
55010;BME280;40903;51.638;7.528;2023-07-31T11:48:37;100163.31;;;18.59;100.00
55010;BME280;40903;51.638;7.528;2023-07-31T11:51:09;100164.47;;;18.73;100.00
55010;BME280;40903;51.638;7.528;2023-07-31T11:53:47;100157.44;;;18.76;100.00
55010;BME280;40903;51.638;7.528;2023-07-31T11:56:17;100160.88;;;18.88;100.00
55010;BME280;40903;51.638;7.528;2023-07-31T11:58:46;100164.53;;;18.92;100.00
55010;BME280;40903;51.638;7.528;2023-07-31T12:01:11;100159.97;;;19.00;100.00
55010;BME280;40903;51.638;7.528;2023-07-31T12:03:39;100170.59;;;18.98;100.00
55010;BME280;40903;51.638;7.528;2023-07-31T12:06:06;100162.28;;;18.98;100.00
55010;BME280;40903;51.638;7.528;2023-07-31T12:08:31;100154.91;;;19.02;100.00
55010;BME280;40903;51.638;7.528;2023-07-31T12:11:04;100163.69;;;19.07;100.00
55010;BME280;40903;51.638;7.528;2023-07-31T12:13:31;100155.16;;;19.12;100.00
55010;BME280;40903;51.638;7.528;2023-07-31T12:15:59;100160.66;;;19.28;100.00
55010;BME280;40903;51.638;7.528;2023-07-31T12:18:27;100156.16;;;19.39;100.00
55010;BME280;40903;51.638;7.528;2023-07-31T12:21:00;100151.88;;;19.41;100.00
55010;BME280;40903;51.638;7.528;2023-07-31T12:23:36;100163.72;;;19.42;100.00
55010;BME280;40903;51.638;7.528;2023-07-31T12:26:02;100156.03;;;19.51;100.00
55010;BME280;40903;51.638;7.528;2023-07-31T12:28:28;100150.41;;;19.47;100.00
55010;BME280;40903;51.638;7.528;2023-07-31T12:30:57;100150.22;;;19.56;100.00
55010;BME280;40903;51.638;7.528;2023-07-31T12:33:24;100155.38;;;19.57;100.00
55010;BME280;40903;51.638;7.528;2023-07-31T12:35:55;100141.91;;;19.56;100.00
55010;BME280;40903;51.638;7.528;2023-07-31T12:38:20;100151.47;;;19.58;100.00
55010;BME280;40903;51.638;7.528;2023-07-31T12:40:45;100142.34;;;19.58;100.00
55010;BME280;40903;51.638;7.528;2023-07-31T12:43:11;100149.84;;;19.57;100.00
55010;BME280;40903;51.638;7.528;2023-07-31T12:45:36;100151.38;;;19.55;100.00
55010;BME280;40903;51.638;7.528;2023-07-31T12:48:02;100162.81;;;19.53;100.00
55010;BME280;40903;51.638;7.528;2023-07-31T12:50:27;100150.84;;;19.49;100.00